CYGE

Golden Airport

Golden, British Columbia, Canada
METAR CYGE 172300Z 31003KT 20SM FEW085 SCT260 34/08 A2991 RMK CU2CI2 SLP113 DENSITY ALT 5300FT
Observed Flight Rules
Jul-17 @ 23:00 UTC (23 minutes ago) Visual Flight Rules
Wind Visibility Clouds
310° at 3 knots 20 miles
  • Few at 8,500' AGL
  • Scattered at 26,000' AGL
Temperatures Readings
Current 34°C / 93°F
Dewpoint 8°C / 46°F
Humidity 20%
Altimeter 29.91" Hg
Pressure 1011.3 hPa
Elevation 785
METAR CYGE 172300Z 31003KT 20SM FEW085 SCT260 34/08 A2991 RMK CU2CI2 SLP113 DENSITY ALT 5300FT
Observed Flight Rules
Jul-17 @ 23:00 UTC
(23 minutes ago)
VFR
Wind Visibility
310° at 3 knots 20 miles
Clouds
  • Few at 8,500' AGL
  • Scattered at 26,000' AGL
Temperature Dewpoint
34°C / 93°F 8°C / 46°F
Humidity Altimeter Pressure
20% 29.91" Hg 1011.3 hPa